Abis Bremen — PCJO — position and weather

sailwx.info

Track history (hours):
 
Tides and Currents Weather Stations Pressure Air Temp Water Temp Dewpoint Dewpoint Depression Visibility Wind Speed Wind Dir Waves Ship Positions

Abis Bremen

Last reported at 2019-Jul-19 19:00 UTC. Time now 2019-Jul-19 19:29 UTC.
Position N 60°39' E 018°20'.

Length 90 m; draft 5.2 m.

Type: Ship. MMSI: 246778880.

Date/timePositionNaut miles runAvg speedWind from/ knotsBaromVisibWave heightAir tempDewpointWater temp
2019-Jul-19 19:00N 60°39' E 018°20'4 8.6
2019-Jul-19 18:30N 60°40' E 018°12'4 8.5
2019-Jul-19 18:00N 60°41' E 018°03'4 8.4
2019-Jul-19 17:30N 60°42' E 017°55'4 8.3
2019-Jul-19 17:00N 60°43' E 017°46'18 0.5
2019-Jul-18 03:53N 60°38' E 018°22'1211.4
2019-Jul-18 02:52N 60°34' E 018°43'511.4
2019-Jul-18 02:28N 60°32' E 018°52'511.0
2019-Jul-18 02:00N 60°30' E 019°01'611.2
2019-Jul-18 01:30N 60°24' E 019°02'611.3
2019-Jul-18 01:00N 60°19' E 019°03'611.3
2019-Jul-18 00:30N 60°13' E 019°04'611.0
2019-Jul-18 00:00N 60°08' E 019°10'611.3
2019-Jul-17 23:30N 60°04' E 019°17'611.3
2019-Jul-17 23:00N 59°59' E 019°24'611.1
2019-Jul-17 22:30N 59°55' E 019°31'911.2
2019-Jul-17 21:44N 59°48' E 019°42'311.1
2019-Jul-17 21:29N 59°47' E 019°46'1111.4
2019-Jul-17 20:32N 59°39' E 020°01'30 9.6
2019-Jul-17 17:27N 59°10' E 019°45'511.0
2019-Jul-17 17:00N 59°06' E 019°40'710.9
2019-Jul-17 16:23N 58°60' E 019°33'411.0
2019-Jul-17 16:00N 58°56' E 019°29'611.1
2019-Jul-17 15:27N 58°51' E 019°23'1311.1
2019-Jul-17 14:14N 58°40' E 019°10'411.2
2019-Jul-17 13:52N 58°36' E 019°06'811.1
2019-Jul-17 13:11N 58°30' E 018°58'511.1
2019-Jul-17 12:46N 58°26' E 018°53'311.1
2019-Jul-17 12:30N 58°23' E 018°51'711.2
2019-Jul-17 11:50N 58°17' E 018°43'11811.1
2019-Jul-17 01:14N 56°31' E 017°06'310.7
2019-Jul-17 00:58N 56°29' E 017°04'510.6
2019-Jul-17 00:29N 56°24' E 017°01'510.4
2019-Jul-17 00:00N 56°19' E 016°57'510.6
2019-Jul-16 23:30N 56°14' E 016°53'510.6
2019-Jul-16 23:00N 56°09' E 016°51'510.4
2019-Jul-16 22:30N 56°05' E 016°47'510.4
2019-Jul-16 22:00N 56°02' E 016°40'510.2
2019-Jul-16 21:30N 55°59' E 016°32'510.2
2019-Jul-16 21:00N 55°57' E 016°24'510.7
2019-Jul-16 20:30N 55°55' E 016°15'510.9
2019-Jul-16 20:00N 55°52' E 016°07'510.9
2019-Jul-16 19:30N 55°49' E 015°58'510.7
2019-Jul-16 19:00N 55°46' E 015°50'510.9
2019-Jul-16 18:30N 55°44' E 015°42'611.0
2019-Jul-16 18:00N 55°41' E 015°33'611.1
2019-Jul-16 17:30N 55°38' E 015°25'611.2
2019-Jul-16 17:00N 55°35' E 015°16'611.4
2019-Jul-16 16:30N 55°33' E 015°07'611.3
2019-Jul-16 16:00N 55°30' E 014°58'611.7
2019-Jul-16 15:30N 55°27' E 014°49'611.9
2019-Jul-16 15:00N 55°24' E 014°40'611.8
2019-Jul-16 14:28N 55°19' E 014°33'6311.2
2019-Jul-16 08:52N 54°47' E 012°58'611.7
2019-Jul-16 08:23N 54°45' E 012°50'411.5
2019-Jul-16 08:00N 54°43' E 012°43'611.4
2019-Jul-16 07:30N 54°40' E 012°34'611.7
2019-Jul-16 07:00N 54°36' E 012°27'611.6
2019-Jul-16 06:30N 54°32' E 012°20'810.9
2019-Jul-16 05:45N 54°25' E 012°12'610.8
2019-Jul-16 05:09N 54°20' E 012°07'210.9
2019-Jul-16 04:56N 54°17' E 012°06'610.0
2019-Jul-16 04:22N 54°12' E 012°05'3 2.2
2019-Jul-16 03:11N 54°09' E 012°06'0 0.0
2019-Jul-16 02:59N 54°09' E 012°06'0 0.0
2019-Jul-16 01:59N 54°09' E 012°06'0 0.0
2019-Jul-16 01:05N 54°09' E 012°06'0 0.0
2019-Jul-16 00:59N 54°09' E 012°06'0 0.0
2019-Jul-16 00:29N 54°09' E 012°06'0 0.0
2019-Jul-15 23:59N 54°09' E 012°06'0 0.0
2019-Jul-15 23:05N 54°09' E 012°06'0 0.0
2019-Jul-15 22:53N 54°09' E 012°06'0 0.0
2019-Jul-15 22:26N 54°09' E 012°06'0 0.0
2019-Jul-15 20:59N 54°09' E 012°06'0 0.0
2019-Jul-15 19:44N 54°09' E 012°06'0 0.0
2019-Jul-15 19:29N 54°09' E 012°06'0 0.0
2019-Jul-15 18:47N 54°09' E 012°06'0 0.0
2019-Jul-15 17:11N 54°09' E 012°06'0 0.0
2019-Jul-15 15:02N 54°09' E 012°06'0 0.1
2019-Jul-15 14:59N 54°09' E 012°06'0 0.0
2019-Jul-15 14:05N 54°09' E 012°06'0 0.1
2019-Jul-15 13:59N 54°09' E 012°06'0 0.0
2019-Jul-15 13:23N 54°09' E 012°06'0 0.0
2019-Jul-15 12:41N 54°09' E 012°06'0 0.0
2019-Jul-15 12:26N 54°09' E 012°06'0 0.0
2019-Jul-15 11:50N 54°09' E 012°06'0 0.0
2019-Jul-15 11:02N 54°09' E 012°06'0 0.0
2019-Jul-15 10:50N 54°09' E 012°06'0 0.0
2019-Jul-15 10:23N 54°09' E 012°06'0 0.0
2019-Jul-15 09:44N 54°09' E 012°06'0 0.0
2019-Jul-15 09:29N 54°09' E 012°06'0 0.0
2019-Jul-15 08:47N 54°09' E 012°06'0 0.0
2019-Jul-15 08:26N 54°09' E 012°06'0 0.0
2019-Jul-15 07:59N 54°09' E 012°06'0 0.0
2019-Jul-15 07:22N 54°09' E 012°06'0 0.0
2019-Jul-15 06:59N 54°09' E 012°06'0 0.0
2019-Jul-15 06:29N 54°09' E 012°06'0 0.0
2019-Jul-15 05:56N 54°09' E 012°06'0 0.0
2019-Jul-15 05:29N 54°09' E 012°06'0 0.0
2019-Jul-15 04:59N 54°09' E 012°06'0 0.0
2019-Jul-15 04:26N 54°09' E 012°06'0 0.0
2019-Jul-15 03:59N 54°09' E 012°06'0 0.0
2019-Jul-15 03:26N 54°09' E 012°06'0 0.0
2019-Jul-15 02:56N 54°09' E 012°06'0 0.0
2019-Jul-15 02:23N 54°09' E 012°06'0 0.0
2019-Jul-15 01:44N 54°09' E 012°06'0 0.0
2019-Jul-15 01:29N 54°09' E 012°06'0 0.0
2019-Jul-14 22:44N 54°09' E 012°06'0 0.0
2019-Jul-14 22:29N 54°09' E 012°06'0 0.0
2019-Jul-14 21:29N 54°09' E 012°06'0 0.0
2019-Jul-14 20:59N 54°09' E 012°06'0 0.0
2019-Jul-14 20:17N 54°09' E 012°06'0 0.0
2019-Jul-14 19:14N 54°09' E 012°06'0 0.0
2019-Jul-14 18:59N 54°09' E 012°06'0 0.0
2019-Jul-14 18:08N 54°09' E 012°06'0 0.0
2019-Jul-14 17:20N 54°09' E 012°06'0 0.0
2019-Jul-14 16:59N 54°09' E 012°06'0 0.0
2019-Jul-14 16:29N 54°09' E 012°06'0 0.0
2019-Jul-14 15:59N 54°09' E 012°06'0 0.0
2019-Jul-14 15:29N 54°09' E 012°06'0 0.0
2019-Jul-14 14:59N 54°09' E 012°06'0 0.0
2019-Jul-14 13:44N 54°09' E 012°06'0 0.0
2019-Jul-14 13:23N 54°09' E 012°06'0 1.1
2019-Jul-14 13:01N 54°10' E 012°06'6 9.9
2019-Jul-14 12:24N 54°15' E 012°01'511.9
2019-Jul-14 12:00N 54°19' E 011°56'5 9.6
2019-Jul-14 11:31N 54°22' E 011°50'7 9.4
2019-Jul-14 10:47N 54°26' E 011°41'310.1
2019-Jul-14 10:30N 54°28' E 011°37'5 9.9
2019-Jul-14 10:00N 54°30' E 011°30'5 9.4
2019-Jul-14 09:31N 54°32' E 011°22'4 8.9
2019-Jul-14 09:01N 54°34' E 011°15'5 9.4
2019-Jul-14 08:30N 54°36' E 011°08'5 9.3
2019-Jul-14 08:00N 54°38' E 011°01'5 9.3
2019-Jul-14 07:31N 54°41' E 010°55'4 8.1
2019-Jul-14 07:01N 54°45' E 010°52'4 8.7
2019-Jul-14 06:31N 54°49' E 010°52'4 8.1
2019-Jul-14 06:01N 54°53' E 010°53'4 7.9
2019-Jul-14 05:30N 54°57' E 010°56'4 8.6
2019-Jul-14 05:01N 54°60' E 011°01'4 8.8
2019-Jul-14 04:31N 55°04' E 011°02'4 8.4
2019-Jul-14 04:01N 55°08' E 011°02'4 8.4
2019-Jul-14 03:30N 55°12' E 011°06'7 9.0
2019-Jul-14 02:42N 55°19' E 011°02'2 8.6
2019-Jul-14 02:29N 55°21' E 011°02'21 8.9
2019-Jul-14 00:10N 55°40' E 010°46'1 9.0
2019-Jul-14 00:00N 55°41' E 010°47'5 9.3
2019-Jul-13 23:31N 55°46' E 010°48'5 8.8
2019-Jul-13 22:59N 55°50' E 010°50'7 8.9
2019-Jul-13 22:09N 55°56' E 010°58'3 9.1
2019-Jul-13 21:49N 55°58' E 011°01'3 9.0
2019-Jul-13 21:29N 56°01' E 011°04'5 9.2
2019-Jul-13 20:58N 56°06' E 011°04'4 9.6
2019-Jul-13 20:30N 56°10' E 011°04'5 9.7
2019-Jul-13 20:00N 56°15' E 011°05'6 9.6
2019-Jul-13 19:23N 56°21' E 011°05'4 9.7
2019-Jul-13 19:00N 56°25' E 011°05'5 9.6
2019-Jul-13 18:29N 56°30' E 011°04'4 9.3
2019-Jul-13 18:01N 56°34' E 011°03'4 8.8
2019-Jul-13 17:30N 56°38' E 011°02'4 8.3
2019-Jul-13 17:00N 56°43' E 011°01'4 8.4
2019-Jul-13 16:30N 56°47' E 010°58'4 8.5
2019-Jul-13 16:00N 56°51' E 010°56'5 9.3
2019-Jul-13 15:30N 56°55' E 010°53'510.4
2019-Jul-13 14:59N 57°00' E 010°51'510.2
2019-Jul-13 14:29N 57°05' E 010°48'510.0
2019-Jul-13 14:01N 57°10' E 010°45'5 9.9
2019-Jul-13 13:30N 57°14' E 010°43'5 9.9
2019-Jul-13 13:00N 57°19' E 010°42'510.0
2019-Jul-13 12:31N 57°24' E 010°42'5 9.8
2019-Jul-13 12:01N 57°29' E 010°43'5 9.6
2019-Jul-13 11:31N 57°34' E 010°44'5 9.3
2019-Jul-13 11:01N 57°38' E 010°45'5 9.5
2019-Jul-13 10:31N 57°43' E 010°45'4 8.5
2019-Jul-13 10:01N 57°47' E 010°40'510.7
2019-Jul-13 09:30N 57°46' E 010°30'510.7
2019-Jul-13 09:01N 57°44' E 010°20'510.8
2019-Jul-13 08:31N 57°43' E 010°11'611.0
2019-Jul-13 08:01N 57°42' E 010°01'611.1
2019-Jul-13 07:30N 57°40' E 009°51'510.8
2019-Jul-13 07:01N 57°38' E 009°42'510.8
2019-Jul-13 06:31N 57°34' E 009°34'611.0
2019-Jul-13 06:01N 57°31' E 009°26'611.4
2019-Jul-13 05:31N 57°28' E 009°17'611.5
2019-Jul-13 05:01N 57°24' E 009°08'611.4
2019-Jul-13 04:31N 57°21' E 009°00'611.1
2019-Jul-13 04:01N 57°18' E 008°52'611.1
2019-Jul-13 03:31N 57°14' E 008°43'611.3
2019-Jul-13 03:00N 57°11' E 008°35'511.1
2019-Jul-13 02:31N 57°08' E 008°27'611.2
2019-Jul-13 02:01N 57°04' E 008°19'611.1
2019-Jul-13 01:30N 57°00' E 008°11'510.7
2019-Jul-13 01:01N 56°56' E 008°05'510.6
2019-Jul-13 00:31N 56°52' E 008°00'510.6
2019-Jul-13 00:00N 56°47' E 007°55'510.5
2019-Jul-12 23:30N 56°43' E 007°50'510.3
2019-Jul-12 23:01N 56°38' E 007°45'510.4
2019-Jul-12 22:30N 56°34' E 007°40'510.2
2019-Jul-12 22:01N 56°29' E 007°36'510.0
2019-Jul-12 21:31N 56°25' E 007°31'510.0
2019-Jul-12 21:00N 56°21' E 007°26'510.0
2019-Jul-12 20:30N 56°17' E 007°21'5 9.8
2019-Jul-12 20:00N 56°13' E 007°16'5 9.6
2019-Jul-12 19:30N 56°08' E 007°12'5 9.5
2019-Jul-12 19:00N 56°04' E 007°08'16 9.7
2019-Jul-12 17:22N 55°50' E 006°55'16510.3
2019-Jul-12 01:28N 53°24' E 004°43'511.7
2019-Jul-12 01:00N 53°19' E 004°40'612.0
2019-Jul-12 00:31N 53°14' E 004°36'612.1
2019-Jul-12 00:00N 53°09' E 004°31'611.9
2019-Jul-11 23:31N 53°04' E 004°25'611.7
2019-Jul-11 23:00N 52°59' E 004°20'611.7
2019-Jul-11 22:31N 52°53' E 004°16'611.5
2019-Jul-11 22:01N 52°48' E 004°12'611.6
2019-Jul-11 21:31N 52°43' E 004°07'611.4
2019-Jul-11 21:01N 52°39' E 004°02'611.1
2019-Jul-11 20:31N 52°34' E 003°58'510.7
2019-Jul-11 20:01N 52°29' E 003°54'510.6
2019-Jul-11 19:31N 52°24' E 003°53'510.3
2019-Jul-11 19:01N 52°18' E 003°52'510.0
2019-Jul-11 18:31N 52°13' E 003°53'510.2
2019-Jul-11 18:01N 52°08' E 003°55'5 9.9
2019-Jul-11 17:30N 52°04' E 003°56'611.1
2019-Jul-11 17:01N 51°60' E 004°02'713.8
2019-Jul-11 16:30N 51°56' E 004°12'611.9
2019-Jul-11 16:01N 51°54' E 004°21'4 7.6
2019-Jul-11 15:29N 51°54' E 004°28'0 0.0
2019-Jul-11 14:59N 51°54' E 004°28'0 0.0
2019-Jul-11 14:29N 51°54' E 004°28'0 0.0
2019-Jul-11 13:59N 51°54' E 004°28'0 0.0
2019-Jul-11 13:29N 51°54' E 004°28'0 0.0
2019-Jul-11 12:59N 51°54' E 004°28'0 0.0
2019-Jul-11 12:29N 51°54' E 004°28'0 0.0
2019-Jul-11 11:59N 51°54' E 004°28'0 0.0
2019-Jul-11 11:29N 51°54' E 004°28'0 0.0
2019-Jul-11 10:59N 51°54' E 004°28'0 0.0
2019-Jul-11 10:29N 51°54' E 004°28'0 0.0
2019-Jul-11 09:59N 51°54' E 004°28'0 0.0
2019-Jul-11 09:29N 51°54' E 004°28'0 0.0
2019-Jul-11 08:59N 51°54' E 004°28'0 0.0
2019-Jul-11 08:29N 51°54' E 004°28'0 0.0
2019-Jul-11 07:59N 51°54' E 004°28'0 0.0
2019-Jul-11 07:29N 51°54' E 004°28'0 0.0
2019-Jul-11 06:59N 51°54' E 004°28'0 0.0
2019-Jul-11 06:29N 51°54' E 004°28'0 0.0
2019-Jul-11 05:59N 51°54' E 004°28'0 0.0
2019-Jul-11 05:29N 51°54' E 004°28'0 0.0
2019-Jul-11 04:59N 51°54' E 004°28'0 0.0
2019-Jul-11 04:29N 51°54' E 004°28'0 0.0
2019-Jul-11 03:59N 51°54' E 004°28'0 0.0
2019-Jul-11 03:29N 51°54' E 004°28'0 0.0
2019-Jul-11 02:59N 51°54' E 004°28'0 0.0
2019-Jul-11 02:29N 51°54' E 004°28'0 0.0
2019-Jul-11 01:59N 51°54' E 004°28'0 0.0
2019-Jul-11 01:29N 51°54' E 004°28'0 0.0
2019-Jul-11 00:59N 51°54' E 004°28'0 0.0
2019-Jul-11 00:29N 51°54' E 004°28'0 0.0
2019-Jul-10 23:59N 51°54' E 004°28'0 0.0
2019-Jul-10 23:29N 51°54' E 004°28'0 0.0
2019-Jul-10 22:59N 51°54' E 004°28'0 0.0
2019-Jul-10 22:29N 51°54' E 004°28'0 0.0
2019-Jul-10 21:59N 51°54' E 004°28'0 0.0
2019-Jul-10 21:29N 51°54' E 004°28'0 0.0
2019-Jul-10 20:59N 51°54' E 004°28'0 0.0
2019-Jul-10 20:29N 51°54' E 004°28'0 0.0
2019-Jul-10 19:59N 51°54' E 004°28'0 0.0
2019-Jul-10 19:29N 51°54' E 004°28'0 0.0
2019-Jul-10 18:59N 51°54' E 004°28'0 0.0
2019-Jul-10 18:29N 51°54' E 004°28'0 0.0
2019-Jul-10 17:59N 51°54' E 004°28'0 0.0
2019-Jul-10 17:29N 51°54' E 004°28'0 0.0
2019-Jul-10 16:59N 51°54' E 004°28'1 3.0
2019-Jul-10 16:31N 51°54' E 004°25'1 1.8
2019-Jul-10 15:58N 51°54' E 004°24'105209.7
2019-Jul-10 15:28N 53°39' E 004°24'105209.8
2019-Jul-10 14:58N 51°54' E 004°24'0 0.0
2019-Jul-10 14:28N 51°54' E 004°24'0 0.0
2019-Jul-10 13:58N 51°54' E 004°24'0 0.0
2019-Jul-10 13:28N 51°54' E 004°24'0 0.0
2019-Jul-10 12:58N 51°54' E 004°24'0 0.0
2019-Jul-10 12:28N 51°54' E 004°24'0 0.0
2019-Jul-10 12:00N 51°54' E 004°24'0 0.0
2019-Jul-10 10:46N 51°54' E 004°24'0 0.0
2019-Jul-10 10:28N 51°54' E 004°24'0 0.0
2019-Jul-10 09:58N 51°54' E 004°24'0 0.0
2019-Jul-10 09:28N 51°54' E 004°24'0 0.0
2019-Jul-10 08:58N 51°54' E 004°24'0 0.0
2019-Jul-10 08:28N 51°54' E 004°24'0 0.0
2019-Jul-10 07:58N 51°54' E 004°24'0 0.0
2019-Jul-10 07:28N 51°54' E 004°24'0 0.0
2019-Jul-10 06:58N 51°54' E 004°24'0 0.0
2019-Jul-10 06:28N 51°54' E 004°24'0 0.0
2019-Jul-10 05:58N 51°54' E 004°24'0 0.0
2019-Jul-10 05:28N 51°54' E 004°24'0 0.0
2019-Jul-10 04:58N 51°54' E 004°24'0 0.0
2019-Jul-10 04:28N 51°54' E 004°24'0 0.0
2019-Jul-10 03:58N 51°54' E 004°24'0 0.0
2019-Jul-10 03:28N 51°54' E 004°24'0 0.0
2019-Jul-10 02:58N 51°54' E 004°24'0 0.0
2019-Jul-10 02:28N 51°54' E 004°24'0 0.0
2019-Jul-10 01:58N 51°54' E 004°24'0 0.0
2019-Jul-10 01:28N 51°54' E 004°24'0 0.0
2019-Jul-10 00:58N 51°54' E 004°24'0 0.0
2019-Jul-10 00:28N 51°54' E 004°24'0 0.0
2019-Jul-09 23:58N 51°54' E 004°24'0 0.0
2019-Jul-09 23:28N 51°54' E 004°24'0 0.0
2019-Jul-09 22:58N 51°54' E 004°24'0 0.0
2019-Jul-09 22:28N 51°54' E 004°24'0 0.0
2019-Jul-09 21:58N 51°54' E 004°24'0 0.0
2019-Jul-09 21:28N 51°54' E 004°24'0 0.0
2019-Jul-09 20:58N 51°54' E 004°24'0 0.0
2019-Jul-09 20:28N 51°54' E 004°24'0 0.0
2019-Jul-09 19:58N 51°54' E 004°24'0 0.0
2019-Jul-09 19:28N 51°54' E 004°24'  
Track history (hours):
 
Tides and Currents Weather Stations Pressure Air Temp Water Temp Dewpoint Dewpoint Depression Visibility Wind Speed Wind Dir Waves Ship Positions

Abis Bremen

Last reported at 2019-Jul-19 19:00 UTC. Time now 2019-Jul-19 19:29 UTC.
Position N 60°39' E 018°20'.

Length 90 m; draft 5.2 m.

Type: Ship. MMSI: 246778880.

Date/timePositionNaut miles runAvg speedWind from/ knotsBaromVisibWave heightAir tempDewpointWater temp
2019-Jul-19 19:00N 60°39' E 018°20'4 8.6
2019-Jul-19 18:30N 60°40' E 018°12'4 8.5
2019-Jul-19 18:00N 60°41' E 018°03'4 8.4
2019-Jul-19 17:30N 60°42' E 017°55'4 8.3
2019-Jul-19 17:00N 60°43' E 017°46'18 0.5
2019-Jul-18 03:53N 60°38' E 018°22'1211.4
2019-Jul-18 02:52N 60°34' E 018°43'511.4
2019-Jul-18 02:28N 60°32' E 018°52'511.0
2019-Jul-18 02:00N 60°30' E 019°01'611.2
2019-Jul-18 01:30N 60°24' E 019°02'611.3
2019-Jul-18 01:00N 60°19' E 019°03'611.3
2019-Jul-18 00:30N 60°13' E 019°04'611.0
2019-Jul-18 00:00N 60°08' E 019°10'611.3
2019-Jul-17 23:30N 60°04' E 019°17'611.3
2019-Jul-17 23:00N 59°59' E 019°24'611.1
2019-Jul-17 22:30N 59°55' E 019°31'911.2
2019-Jul-17 21:44N 59°48' E 019°42'311.1
2019-Jul-17 21:29N 59°47' E 019°46'1111.4
2019-Jul-17 20:32N 59°39' E 020°01'30 9.6
2019-Jul-17 17:27N 59°10' E 019°45'511.0
2019-Jul-17 17:00N 59°06' E 019°40'710.9
2019-Jul-17 16:23N 58°60' E 019°33'411.0
2019-Jul-17 16:00N 58°56' E 019°29'611.1
2019-Jul-17 15:27N 58°51' E 019°23'1311.1
2019-Jul-17 14:14N 58°40' E 019°10'411.2
2019-Jul-17 13:52N 58°36' E 019°06'811.1
2019-Jul-17 13:11N 58°30' E 018°58'511.1
2019-Jul-17 12:46N 58°26' E 018°53'311.1
2019-Jul-17 12:30N 58°23' E 018°51'711.2
2019-Jul-17 11:50N 58°17' E 018°43'11811.1
2019-Jul-17 01:14N 56°31' E 017°06'310.7
2019-Jul-17 00:58N 56°29' E 017°04'510.6
2019-Jul-17 00:29N 56°24' E 017°01'510.4
2019-Jul-17 00:00N 56°19' E 016°57'510.6
2019-Jul-16 23:30N 56°14' E 016°53'510.6
2019-Jul-16 23:00N 56°09' E 016°51'510.4
2019-Jul-16 22:30N 56°05' E 016°47'510.4
2019-Jul-16 22:00N 56°02' E 016°40'510.2
2019-Jul-16 21:30N 55°59' E 016°32'510.2
2019-Jul-16 21:00N 55°57' E 016°24'510.7
2019-Jul-16 20:30N 55°55' E 016°15'510.9
2019-Jul-16 20:00N 55°52' E 016°07'510.9
2019-Jul-16 19:30N 55°49' E 015°58'510.7
2019-Jul-16 19:00N 55°46' E 015°50'510.9
2019-Jul-16 18:30N 55°44' E 015°42'611.0
2019-Jul-16 18:00N 55°41' E 015°33'611.1
2019-Jul-16 17:30N 55°38' E 015°25'611.2
2019-Jul-16 17:00N 55°35' E 015°16'611.4
2019-Jul-16 16:30N 55°33' E 015°07'611.3
2019-Jul-16 16:00N 55°30' E 014°58'611.7
2019-Jul-16 15:30N 55°27' E 014°49'611.9
2019-Jul-16 15:00N 55°24' E 014°40'611.8
2019-Jul-16 14:28N 55°19' E 014°33'6311.2
2019-Jul-16 08:52N 54°47' E 012°58'611.7
2019-Jul-16 08:23N 54°45' E 012°50'411.5
2019-Jul-16 08:00N 54°43' E 012°43'611.4
2019-Jul-16 07:30N 54°40' E 012°34'611.7
2019-Jul-16 07:00N 54°36' E 012°27'611.6
2019-Jul-16 06:30N 54°32' E 012°20'810.9
2019-Jul-16 05:45N 54°25' E 012°12'610.8
2019-Jul-16 05:09N 54°20' E 012°07'210.9
2019-Jul-16 04:56N 54°17' E 012°06'610.0
2019-Jul-16 04:22N 54°12' E 012°05'3 2.2
2019-Jul-16 03:11N 54°09' E 012°06'0 0.0
2019-Jul-16 02:59N 54°09' E 012°06'0 0.0
2019-Jul-16 01:59N 54°09' E 012°06'0 0.0
2019-Jul-16 01:05N 54°09' E 012°06'0 0.0
2019-Jul-16 00:59N 54°09' E 012°06'0 0.0
2019-Jul-16 00:29N 54°09' E 012°06'0 0.0
2019-Jul-15 23:59N 54°09' E 012°06'0 0.0
2019-Jul-15 23:05N 54°09' E 012°06'0 0.0
2019-Jul-15 22:53N 54°09' E 012°06'0 0.0
2019-Jul-15 22:26N 54°09' E 012°06'0 0.0
2019-Jul-15 20:59N 54°09' E 012°06'0 0.0
2019-Jul-15 19:44N 54°09' E 012°06'0 0.0
2019-Jul-15 19:29N 54°09' E 012°06'0 0.0
2019-Jul-15 18:47N 54°09' E 012°06'0 0.0
2019-Jul-15 17:11N 54°09' E 012°06'0 0.0
2019-Jul-15 15:02N 54°09' E 012°06'0 0.1
2019-Jul-15 14:59N 54°09' E 012°06'0 0.0
2019-Jul-15 14:05N 54°09' E 012°06'0 0.1
2019-Jul-15 13:59N 54°09' E 012°06'0 0.0
2019-Jul-15 13:23N 54°09' E 012°06'0 0.0
2019-Jul-15 12:41N 54°09' E 012°06'0 0.0
2019-Jul-15 12:26N 54°09' E 012°06'0 0.0
2019-Jul-15 11:50N 54°09' E 012°06'0 0.0
2019-Jul-15 11:02N 54°09' E 012°06'0 0.0
2019-Jul-15 10:50N 54°09' E 012°06'0 0.0
2019-Jul-15 10:23N 54°09' E 012°06'0 0.0
2019-Jul-15 09:44N 54°09' E 012°06'0 0.0
2019-Jul-15 09:29N 54°09' E 012°06'0 0.0
2019-Jul-15 08:47N 54°09' E 012°06'0 0.0
2019-Jul-15 08:26N 54°09' E 012°06'0 0.0
2019-Jul-15 07:59N 54°09' E 012°06'0 0.0
2019-Jul-15 07:22N 54°09' E 012°06'0 0.0
2019-Jul-15 06:59N 54°09' E 012°06'0 0.0
2019-Jul-15 06:29N 54°09' E 012°06'0 0.0
2019-Jul-15 05:56N 54°09' E 012°06'0 0.0
2019-Jul-15 05:29N 54°09' E 012°06'0 0.0
2019-Jul-15 04:59N 54°09' E 012°06'0 0.0
2019-Jul-15 04:26N 54°09' E 012°06'0 0.0
2019-Jul-15 03:59N 54°09' E 012°06'0 0.0
2019-Jul-15 03:26N 54°09' E 012°06'0 0.0
2019-Jul-15 02:56N 54°09' E 012°06'0 0.0
2019-Jul-15 02:23N 54°09' E 012°06'0 0.0
2019-Jul-15 01:44N 54°09' E 012°06'0 0.0
2019-Jul-15 01:29N 54°09' E 012°06'0 0.0
2019-Jul-14 22:44N 54°09' E 012°06'0 0.0
2019-Jul-14 22:29N 54°09' E 012°06'0 0.0
2019-Jul-14 21:29N 54°09' E 012°06'0 0.0
2019-Jul-14 20:59N 54°09' E 012°06'0 0.0
2019-Jul-14 20:17N 54°09' E 012°06'0 0.0
2019-Jul-14 19:14N 54°09' E 012°06'0 0.0
2019-Jul-14 18:59N 54°09' E 012°06'0 0.0
2019-Jul-14 18:08N 54°09' E 012°06'0 0.0
2019-Jul-14 17:20N 54°09' E 012°06'0 0.0
2019-Jul-14 16:59N 54°09' E 012°06'0 0.0
2019-Jul-14 16:29N 54°09' E 012°06'0 0.0
2019-Jul-14 15:59N 54°09' E 012°06'0 0.0
2019-Jul-14 15:29N 54°09' E 012°06'0 0.0
2019-Jul-14 14:59N 54°09' E 012°06'0 0.0
2019-Jul-14 13:44N 54°09' E 012°06'0 0.0
2019-Jul-14 13:23N 54°09' E 012°06'0 1.1
2019-Jul-14 13:01N 54°10' E 012°06'6 9.9
2019-Jul-14 12:24N 54°15' E 012°01'511.9
2019-Jul-14 12:00N 54°19' E 011°56'5 9.6
2019-Jul-14 11:31N 54°22' E 011°50'7 9.4
2019-Jul-14 10:47N 54°26' E 011°41'310.1
2019-Jul-14 10:30N 54°28' E 011°37'5 9.9
2019-Jul-14 10:00N 54°30' E 011°30'5 9.4
2019-Jul-14 09:31N 54°32' E 011°22'4 8.9
2019-Jul-14 09:01N 54°34' E 011°15'5 9.4
2019-Jul-14 08:30N 54°36' E 011°08'5 9.3
2019-Jul-14 08:00N 54°38' E 011°01'5 9.3
2019-Jul-14 07:31N 54°41' E 010°55'4 8.1
2019-Jul-14 07:01N 54°45' E 010°52'4 8.7
2019-Jul-14 06:31N 54°49' E 010°52'4 8.1
2019-Jul-14 06:01N 54°53' E 010°53'4 7.9
2019-Jul-14 05:30N 54°57' E 010°56'4 8.6
2019-Jul-14 05:01N 54°60' E 011°01'4 8.8
2019-Jul-14 04:31N 55°04' E 011°02'4 8.4
2019-Jul-14 04:01N 55°08' E 011°02'4 8.4
2019-Jul-14 03:30N 55°12' E 011°06'7 9.0
2019-Jul-14 02:42N 55°19' E 011°02'2 8.6
2019-Jul-14 02:29N 55°21' E 011°02'21 8.9
2019-Jul-14 00:10N 55°40' E 010°46'1 9.0
2019-Jul-14 00:00N 55°41' E 010°47'5 9.3
2019-Jul-13 23:31N 55°46' E 010°48'5 8.8
2019-Jul-13 22:59N 55°50' E 010°50'7 8.9
2019-Jul-13 22:09N 55°56' E 010°58'3 9.1
2019-Jul-13 21:49N 55°58' E 011°01'3 9.0
2019-Jul-13 21:29N 56°01' E 011°04'5 9.2
2019-Jul-13 20:58N 56°06' E 011°04'4 9.6
2019-Jul-13 20:30N 56°10' E 011°04'5 9.7
2019-Jul-13 20:00N 56°15' E 011°05'6 9.6
2019-Jul-13 19:23N 56°21' E 011°05'4 9.7
2019-Jul-13 19:00N 56°25' E 011°05'5 9.6
2019-Jul-13 18:29N 56°30' E 011°04'4 9.3
2019-Jul-13 18:01N 56°34' E 011°03'4 8.8
2019-Jul-13 17:30N 56°38' E 011°02'4 8.3
2019-Jul-13 17:00N 56°43' E 011°01'4 8.4
2019-Jul-13 16:30N 56°47' E 010°58'4 8.5
2019-Jul-13 16:00N 56°51' E 010°56'5 9.3
2019-Jul-13 15:30N 56°55' E 010°53'510.4
2019-Jul-13 14:59N 57°00' E 010°51'510.2
2019-Jul-13 14:29N 57°05' E 010°48'510.0
2019-Jul-13 14:01N 57°10' E 010°45'5 9.9
2019-Jul-13 13:30N 57°14' E 010°43'5 9.9
2019-Jul-13 13:00N 57°19' E 010°42'510.0
2019-Jul-13 12:31N 57°24' E 010°42'5 9.8
2019-Jul-13 12:01N 57°29' E 010°43'5 9.6
2019-Jul-13 11:31N 57°34' E 010°44'5 9.3
2019-Jul-13 11:01N 57°38' E 010°45'5 9.5
2019-Jul-13 10:31N 57°43' E 010°45'4 8.5
2019-Jul-13 10:01N 57°47' E 010°40'510.7
2019-Jul-13 09:30N 57°46' E 010°30'510.7
2019-Jul-13 09:01N 57°44' E 010°20'510.8
2019-Jul-13 08:31N 57°43' E 010°11'611.0
2019-Jul-13 08:01N 57°42' E 010°01'611.1
2019-Jul-13 07:30N 57°40' E 009°51'510.8
2019-Jul-13 07:01N 57°38' E 009°42'510.8
2019-Jul-13 06:31N 57°34' E 009°34'611.0
2019-Jul-13 06:01N 57°31' E 009°26'611.4
2019-Jul-13 05:31N 57°28' E 009°17'611.5
2019-Jul-13 05:01N 57°24' E 009°08'611.4
2019-Jul-13 04:31N 57°21' E 009°00'611.1
2019-Jul-13 04:01N 57°18' E 008°52'611.1
2019-Jul-13 03:31N 57°14' E 008°43'611.3
2019-Jul-13 03:00N 57°11' E 008°35'511.1
2019-Jul-13 02:31N 57°08' E 008°27'611.2
2019-Jul-13 02:01N 57°04' E 008°19'611.1
2019-Jul-13 01:30N 57°00' E 008°11'510.7
2019-Jul-13 01:01N 56°56' E 008°05'510.6
2019-Jul-13 00:31N 56°52' E 008°00'510.6
2019-Jul-13 00:00N 56°47' E 007°55'510.5
2019-Jul-12 23:30N 56°43' E 007°50'510.3
2019-Jul-12 23:01N 56°38' E 007°45'510.4
2019-Jul-12 22:30N 56°34' E 007°40'510.2
2019-Jul-12 22:01N 56°29' E 007°36'510.0
2019-Jul-12 21:31N 56°25' E 007°31'510.0
2019-Jul-12 21:00N 56°21' E 007°26'510.0
2019-Jul-12 20:30N 56°17' E 007°21'5 9.8
2019-Jul-12 20:00N 56°13' E 007°16'5 9.6
2019-Jul-12 19:30N 56°08' E 007°12'5 9.5
2019-Jul-12 19:00N 56°04' E 007°08'16 9.7
2019-Jul-12 17:22N 55°50' E 006°55'16510.3
2019-Jul-12 01:28N 53°24' E 004°43'511.7
2019-Jul-12 01:00N 53°19' E 004°40'612.0
2019-Jul-12 00:31N 53°14' E 004°36'612.1
2019-Jul-12 00:00N 53°09' E 004°31'611.9
2019-Jul-11 23:31N 53°04' E 004°25'611.7
2019-Jul-11 23:00N 52°59' E 004°20'611.7
2019-Jul-11 22:31N 52°53' E 004°16'611.5
2019-Jul-11 22:01N 52°48' E 004°12'611.6
2019-Jul-11 21:31N 52°43' E 004°07'611.4
2019-Jul-11 21:01N 52°39' E 004°02'611.1
2019-Jul-11 20:31N 52°34' E 003°58'510.7
2019-Jul-11 20:01N 52°29' E 003°54'510.6
2019-Jul-11 19:31N 52°24' E 003°53'510.3
2019-Jul-11 19:01N 52°18' E 003°52'510.0
2019-Jul-11 18:31N 52°13' E 003°53'510.2
2019-Jul-11 18:01N 52°08' E 003°55'5 9.9
2019-Jul-11 17:30N 52°04' E 003°56'611.1
2019-Jul-11 17:01N 51°60' E 004°02'713.8
2019-Jul-11 16:30N 51°56' E 004°12'611.9
2019-Jul-11 16:01N 51°54' E 004°21'4 7.6
2019-Jul-11 15:29N 51°54' E 004°28'0 0.0
2019-Jul-11 14:59N 51°54' E 004°28'0 0.0
2019-Jul-11 14:29N 51°54' E 004°28'0 0.0
2019-Jul-11 13:59N 51°54' E 004°28'0 0.0
2019-Jul-11 13:29N 51°54' E 004°28'0 0.0
2019-Jul-11 12:59N 51°54' E 004°28'0 0.0
2019-Jul-11 12:29N 51°54' E 004°28'0 0.0
2019-Jul-11 11:59N 51°54' E 004°28'0 0.0
2019-Jul-11 11:29N 51°54' E 004°28'0 0.0
2019-Jul-11 10:59N 51°54' E 004°28'0 0.0
2019-Jul-11 10:29N 51°54' E 004°28'0 0.0
2019-Jul-11 09:59N 51°54' E 004°28'0 0.0
2019-Jul-11 09:29N 51°54' E 004°28'0 0.0
2019-Jul-11 08:59N 51°54' E 004°28'0 0.0
2019-Jul-11 08:29N 51°54' E 004°28'0 0.0
2019-Jul-11 07:59N 51°54' E 004°28'0 0.0
2019-Jul-11 07:29N 51°54' E 004°28'0 0.0
2019-Jul-11 06:59N 51°54' E 004°28'0 0.0
2019-Jul-11 06:29N 51°54' E 004°28'0 0.0
2019-Jul-11 05:59N 51°54' E 004°28'0 0.0
2019-Jul-11 05:29N 51°54' E 004°28'0 0.0
2019-Jul-11 04:59N 51°54' E 004°28'0 0.0
2019-Jul-11 04:29N 51°54' E 004°28'0 0.0
2019-Jul-11 03:59N 51°54' E 004°28'0 0.0
2019-Jul-11 03:29N 51°54' E 004°28'0 0.0
2019-Jul-11 02:59N 51°54' E 004°28'0 0.0
2019-Jul-11 02:29N 51°54' E 004°28'0 0.0
2019-Jul-11 01:59N 51°54' E 004°28'0 0.0
2019-Jul-11 01:29N 51°54' E 004°28'0 0.0
2019-Jul-11 00:59N 51°54' E 004°28'0 0.0
2019-Jul-11 00:29N 51°54' E 004°28'0 0.0
2019-Jul-10 23:59N 51°54' E 004°28'0 0.0
2019-Jul-10 23:29N 51°54' E 004°28'0 0.0
2019-Jul-10 22:59N 51°54' E 004°28'0 0.0
2019-Jul-10 22:29N 51°54' E 004°28'0 0.0
2019-Jul-10 21:59N 51°54' E 004°28'0 0.0
2019-Jul-10 21:29N 51°54' E 004°28'0 0.0
2019-Jul-10 20:59N 51°54' E 004°28'0 0.0
2019-Jul-10 20:29N 51°54' E 004°28'0 0.0
2019-Jul-10 19:59N 51°54' E 004°28'0 0.0
2019-Jul-10 19:29N 51°54' E 004°28'0 0.0
2019-Jul-10 18:59N 51°54' E 004°28'0 0.0
2019-Jul-10 18:29N 51°54' E 004°28'0 0.0
2019-Jul-10 17:59N 51°54' E 004°28'0 0.0
2019-Jul-10 17:29N 51°54' E 004°28'0 0.0
2019-Jul-10 16:59N 51°54' E 004°28'1 3.0
2019-Jul-10 16:31N 51°54' E 004°25'1 1.8
2019-Jul-10 15:58N 51°54' E 004°24'105209.7
2019-Jul-10 15:28N 53°39' E 004°24'105209.8
2019-Jul-10 14:58N 51°54' E 004°24'0 0.0
2019-Jul-10 14:28N 51°54' E 004°24'0 0.0
2019-Jul-10 13:58N 51°54' E 004°24'0 0.0
2019-Jul-10 13:28N 51°54' E 004°24'0 0.0
2019-Jul-10 12:58N 51°54' E 004°24'0 0.0
2019-Jul-10 12:28N 51°54' E 004°24'0 0.0
2019-Jul-10 12:00N 51°54' E 004°24'0 0.0
2019-Jul-10 10:46N 51°54' E 004°24'0 0.0
2019-Jul-10 10:28N 51°54' E 004°24'0 0.0
2019-Jul-10 09:58N 51°54' E 004°24'0 0.0
2019-Jul-10 09:28N 51°54' E 004°24'0 0.0
2019-Jul-10 08:58N 51°54' E 004°24'0 0.0
2019-Jul-10 08:28N 51°54' E 004°24'0 0.0
2019-Jul-10 07:58N 51°54' E 004°24'0 0.0
2019-Jul-10 07:28N 51°54' E 004°24'0 0.0
2019-Jul-10 06:58N 51°54' E 004°24'0 0.0
2019-Jul-10 06:28N 51°54' E 004°24'0 0.0
2019-Jul-10 05:58N 51°54' E 004°24'0 0.0
2019-Jul-10 05:28N 51°54' E 004°24'0 0.0
2019-Jul-10 04:58N 51°54' E 004°24'0 0.0
2019-Jul-10 04:28N 51°54' E 004°24'0 0.0
2019-Jul-10 03:58N 51°54' E 004°24'0 0.0
2019-Jul-10 03:28N 51°54' E 004°24'0 0.0
2019-Jul-10 02:58N 51°54' E 004°24'0 0.0
2019-Jul-10 02:28N 51°54' E 004°24'0 0.0
2019-Jul-10 01:58N 51°54' E 004°24'0 0.0
2019-Jul-10 01:28N 51°54' E 004°24'0 0.0
2019-Jul-10 00:58N 51°54' E 004°24'0 0.0
2019-Jul-10 00:28N 51°54' E 004°24'0 0.0
2019-Jul-09 23:58N 51°54' E 004°24'0 0.0
2019-Jul-09 23:28N 51°54' E 004°24'0 0.0
2019-Jul-09 22:58N 51°54' E 004°24'0 0.0
2019-Jul-09 22:28N 51°54' E 004°24'0 0.0
2019-Jul-09 21:58N 51°54' E 004°24'0 0.0
2019-Jul-09 21:28N 51°54' E 004°24'0 0.0
2019-Jul-09 20:58N 51°54' E 004°24'0 0.0
2019-Jul-09 20:28N 51°54' E 004°24'0 0.0
2019-Jul-09 19:58N 51°54' E 004°24'0 0.0
2019-Jul-09 19:28N 51°54' E 004°24'  

Dump ship's entire track history